createdAt,value
2023-02-03T00:01:01.714Z,1.70
2023-02-03T00:03:28.512Z,1.60
2023-02-03T00:05:55.866Z,1.60
2023-02-03T00:08:23.615Z,1.60
2023-02-03T00:10:51.266Z,1.70
2023-02-03T00:13:18.441Z,1.70
2023-02-03T00:15:45.242Z,1.70
2023-02-03T00:18:12.149Z,1.70
2023-02-03T00:20:39.169Z,1.70
2023-02-03T00:23:08.837Z,1.70
2023-02-03T00:25:36.259Z,1.70
2023-02-03T00:28:03.798Z,1.70
2023-02-03T00:30:30.712Z,1.70
2023-02-03T00:32:57.595Z,1.70
2023-02-03T00:35:24.376Z,1.70
2023-02-03T00:37:53.423Z,1.70
2023-02-03T00:40:48.251Z,1.70
2023-02-03T00:43:15.006Z,1.70
2023-02-03T00:45:42.700Z,1.60
2023-02-03T00:48:09.519Z,1.60
2023-02-03T00:50:36.655Z,1.60
2023-02-03T00:53:03.407Z,1.60
2023-02-03T00:55:30.240Z,1.50
2023-02-03T00:57:57.042Z,1.50
2023-02-03T01:00:24.429Z,1.50
2023-02-03T01:02:51.558Z,1.50
2023-02-03T01:05:18.454Z,1.40
2023-02-03T01:07:45.247Z,1.40
2023-02-03T01:10:16.598Z,1.40
2023-02-03T01:12:43.347Z,1.40
2023-02-03T01:15:10.658Z,1.40
2023-02-03T01:17:37.534Z,1.30
2023-02-03T01:20:04.887Z,1.40
2023-02-03T01:22:32.239Z,1.30
2023-02-03T01:24:59.099Z,1.30
2023-02-03T01:27:26.178Z,1.30
2023-02-03T01:29:53.060Z,1.30
2023-02-03T01:32:19.859Z,1.30
2023-02-03T01:34:46.702Z,1.30
2023-02-03T01:37:14.599Z,1.30
2023-02-03T01:39:41.761Z,1.20
2023-02-03T01:42:12.638Z,1.20
2023-02-03T01:44:42.184Z,1.20
2023-02-03T01:47:12.095Z,1.30
2023-02-03T01:49:40.954Z,1.30
2023-02-03T01:52:07.890Z,1.30
2023-02-03T01:54:39.656Z,1.30
2023-02-03T01:57:13.458Z,1.30
2023-02-03T01:59:40.656Z,1.30
2023-02-03T02:02:08.597Z,1.30
2023-02-03T02:04:51.167Z,1.30
2023-02-03T02:07:17.978Z,1.30
2023-02-03T02:09:45.943Z,1.30
2023-02-03T02:12:13.132Z,1.30
2023-02-03T02:14:40.998Z,1.30
2023-02-03T02:17:57.071Z,1.30
2023-02-03T02:20:40.860Z,1.30
2023-02-03T02:23:35.124Z,1.30
2023-02-03T02:26:20.799Z,1.30
2023-02-03T02:29:02.232Z,1.30
2023-02-03T02:32:00.603Z,1.30
2023-02-03T02:35:05.565Z,1.40
2023-02-03T02:37:41.562Z,1.40
2023-02-03T02:40:30.462Z,1.40
2023-02-03T02:43:13.130Z,1.40
2023-02-03T02:45:59.605Z,1.40
2023-02-03T02:48:29.804Z,1.50
2023-02-03T02:50:58.595Z,1.50
2023-02-03T02:53:31.675Z,1.50
2023-02-03T02:55:59.671Z,1.60
2023-02-03T02:58:30.952Z,1.60
2023-02-03T03:00:58.523Z,1.70
2023-02-03T03:03:25.734Z,1.70
2023-02-03T03:06:25.553Z,1.80
2023-02-03T03:09:17.377Z,1.80
2023-02-03T03:11:50.397Z,1.90
2023-02-03T03:14:20.408Z,2.00
2023-02-03T03:17:04.315Z,2.10
2023-02-03T03:19:55.898Z,2.20
2023-02-03T03:22:32.405Z,2.30
2023-02-03T03:25:07.656Z,2.40
2023-02-03T03:27:40.658Z,2.50
2023-02-03T03:30:32.746Z,2.60
2023-02-03T03:32:59.755Z,2.60
2023-02-03T03:35:33.893Z,2.70
2023-02-03T03:38:16.581Z,2.80
2023-02-03T03:40:50.242Z,2.90
2023-02-03T03:43:24.001Z,3.10
2023-02-03T03:46:00.846Z,3.10
2023-02-03T03:48:47.932Z,3.20
2023-02-03T03:51:22.460Z,3.20
2023-02-03T03:53:52.430Z,3.30
2023-02-03T03:56:30.866Z,3.40
2023-02-03T03:59:03.125Z,3.40
2023-02-03T04:01:30.937Z,3.50
2023-02-03T04:04:02.177Z,3.50
2023-02-03T04:06:28.964Z,3.60
2023-02-03T04:08:56.170Z,3.60
2023-02-03T04:11:41.650Z,3.70
2023-02-03T04:14:08.968Z,3.80
2023-02-03T04:16:35.939Z,3.90
2023-02-03T04:19:03.447Z,3.90
2023-02-03T04:21:30.512Z,4.00
2023-02-03T04:23:59.024Z,4.00
2023-02-03T04:26:25.817Z,4.10
2023-02-03T04:28:52.788Z,4.20
2023-02-03T04:31:20.401Z,4.20
2023-02-03T04:33:48.149Z,4.20
2023-02-03T04:36:15.512Z,4.30
2023-02-03T04:38:53.376Z,4.30
2023-02-03T04:41:22.874Z,4.40
2023-02-03T04:43:53.623Z,4.40
2023-02-03T04:46:20.589Z,4.50
2023-02-03T04:48:47.636Z,4.50
2023-02-03T04:51:15.242Z,4.60
2023-02-03T04:53:42.100Z,4.60
2023-02-03T04:56:09.188Z,4.70
2023-02-03T05:01:12.887Z,4.90
2023-02-03T05:03:39.732Z,4.90
2023-02-03T05:06:06.705Z,5.00
2023-02-03T05:08:33.785Z,5.00
2023-02-03T05:11:48.361Z,5.10
2023-02-03T05:14:15.550Z,5.20
2023-02-03T05:16:42.363Z,5.20
2023-02-03T05:19:09.138Z,5.20
2023-02-03T05:21:37.789Z,5.30
2023-02-03T05:24:07.739Z,5.40
2023-02-03T05:26:35.587Z,5.40
2023-02-03T05:29:03.648Z,5.50
2023-02-03T05:31:30.651Z,5.50
2023-02-03T05:34:02.449Z,5.60
2023-02-03T05:36:29.332Z,5.60
2023-02-03T05:38:59.133Z,5.60
2023-02-03T05:41:44.953Z,5.60
2023-02-03T05:44:16.802Z,5.70
2023-02-03T05:46:45.264Z,5.70
2023-02-03T05:49:12.160Z,5.70
2023-02-03T05:51:39.614Z,5.80
2023-02-03T05:54:07.009Z,5.70
2023-02-03T05:56:34.036Z,5.70
2023-02-03T05:59:02.289Z,5.80
2023-02-03T06:01:29.641Z,5.80
2023-02-03T06:03:57.040Z,5.80
2023-02-03T06:06:24.224Z,5.80
2023-02-03T06:08:56.196Z,5.80
2023-02-03T06:11:26.397Z,5.80
2023-02-03T06:13:53.376Z,5.80
2023-02-03T06:16:22.408Z,5.80
2023-02-03T06:18:49.231Z,5.80
2023-02-03T06:21:16.693Z,5.90
2023-02-03T06:23:43.419Z,5.80
2023-02-03T06:26:10.286Z,5.90
2023-02-03T06:28:39.292Z,5.90
2023-02-03T06:31:06.953Z,5.90
2023-02-03T06:33:33.904Z,5.90
2023-02-03T06:36:01.990Z,5.90
2023-02-03T06:38:29.095Z,6.00
2023-02-03T06:40:55.897Z,6.00
2023-02-03T06:43:22.813Z,6.00
2023-02-03T06:45:49.699Z,6.00
2023-02-03T06:48:16.723Z,6.00
2023-02-03T06:50:45.995Z,6.00
2023-02-03T06:53:14.371Z,6.00
2023-02-03T06:55:41.208Z,6.00
2023-02-03T06:58:08.278Z,6.00
2023-02-03T07:00:35.179Z,6.00
2023-02-03T07:03:05.635Z,6.00
2023-02-03T07:05:33.224Z,6.00
2023-02-03T07:08:00.128Z,6.10
2023-02-03T07:10:27.404Z,6.10
2023-02-03T07:12:54.468Z,6.10
2023-02-03T07:15:21.297Z,6.10
2023-02-03T07:17:54.565Z,6.10
2023-02-03T07:20:23.024Z,6.10
2023-02-03T07:22:57.481Z,6.10
2023-02-03T07:25:25.397Z,6.10
2023-02-03T07:27:52.375Z,6.10
2023-02-03T07:30:19.569Z,6.20
2023-02-03T07:32:51.147Z,6.10
2023-02-03T07:35:18.633Z,6.20
2023-02-03T07:37:45.755Z,6.20
2023-02-03T07:40:13.558Z,6.20
2023-02-03T07:42:45.520Z,6.20
2023-02-03T07:45:14.179Z,6.20
2023-02-03T07:47:42.295Z,6.20
2023-02-03T07:50:11.089Z,6.30
2023-02-03T07:52:38.567Z,6.30
2023-02-03T07:55:05.644Z,6.30
2023-02-03T07:57:32.458Z,6.30
2023-02-03T07:59:59.238Z,6.30
2023-02-03T08:02:26.181Z,6.30
2023-02-03T08:04:53.071Z,6.30
2023-02-03T08:07:19.909Z,6.30
2023-02-03T08:09:46.803Z,6.30
2023-02-03T08:12:13.616Z,6.30
2023-02-03T08:14:40.735Z,6.30
2023-02-03T08:17:07.770Z,6.40
2023-02-03T08:19:35.224Z,6.40
2023-02-03T08:22:02.014Z,6.50
2023-02-03T08:24:28.772Z,6.50
2023-02-03T08:26:55.636Z,6.50
2023-02-03T08:29:22.676Z,6.50
2023-02-03T08:31:49.547Z,6.70
2023-02-03T08:34:16.354Z,6.70
2023-02-03T08:36:44.116Z,6.70
2023-02-03T08:39:12.184Z,6.70
2023-02-03T08:41:38.984Z,6.70
2023-02-03T08:44:06.226Z,6.60
2023-02-03T08:46:33.385Z,6.60
2023-02-03T08:49:02.782Z,6.60
2023-02-03T08:51:30.298Z,6.50
2023-02-03T08:53:57.171Z,6.50
2023-02-03T08:56:26.356Z,6.40
2023-02-03T08:58:55.075Z,6.40
2023-02-03T09:01:23.053Z,6.40
2023-02-03T09:03:49.955Z,6.30
2023-02-03T09:06:17.036Z,6.30
2023-02-03T09:08:46.028Z,6.30
2023-02-03T09:11:16.168Z,6.20
2023-02-03T09:13:46.045Z,6.30
2023-02-03T09:16:13.768Z,6.40
2023-02-03T09:18:40.631Z,6.60
2023-02-03T09:21:20.899Z,6.50
2023-02-03T09:24:02.615Z,6.50
2023-02-03T09:26:29.759Z,6.50
2023-02-03T09:28:56.836Z,6.70
2023-02-03T09:31:23.662Z,6.60
2023-02-03T09:33:50.624Z,6.60
2023-02-03T09:36:17.373Z,6.50
2023-02-03T09:38:44.223Z,6.40
2023-02-03T09:41:12.299Z,6.30
2023-02-03T09:43:46.684Z,6.40
2023-02-03T09:46:21.728Z,6.50
2023-02-03T09:48:54.427Z,6.50
2023-02-03T09:51:28.027Z,6.40
2023-02-03T09:54:28.166Z,6.50
2023-02-03T09:56:55.859Z,6.50
2023-02-03T09:59:26.712Z,6.60
2023-02-03T10:02:18.691Z,6.70
2023-02-03T10:05:08.163Z,6.90
2023-02-03T10:07:59.071Z,7.20
2023-02-03T10:10:40.446Z,7.30
2023-02-03T10:13:10.344Z,7.40
2023-02-03T10:16:06.457Z,7.40
2023-02-03T10:18:40.874Z,7.50
2023-02-03T10:21:26.864Z,7.60
2023-02-03T10:23:57.103Z,7.70
2023-02-03T10:26:27.717Z,8.00
2023-02-03T10:29:03.532Z,8.00
2023-02-03T10:31:36.151Z,7.70
2023-02-03T10:34:14.855Z,7.70
2023-02-03T10:36:55.928Z,7.90
2023-02-03T10:39:52.009Z,8.00
2023-02-03T10:42:19.257Z,8.10
2023-02-03T10:44:58.068Z,8.00
2023-02-03T10:47:36.331Z,7.80
2023-02-03T10:50:08.007Z,7.70
2023-02-03T10:52:36.460Z,7.60
2023-02-03T10:55:29.123Z,7.50
2023-02-03T10:57:59.427Z,7.40
2023-02-03T11:00:36.027Z,7.40
2023-02-03T11:03:06.823Z,7.30
2023-02-03T11:05:34.535Z,7.30
2023-02-03T11:08:04.429Z,7.20
2023-02-03T11:10:37.817Z,7.20
2023-02-03T11:13:25.944Z,7.10
2023-02-03T11:15:59.091Z,7.10
2023-02-03T11:19:02.898Z,7.00
2023-02-03T11:21:32.712Z,6.80
2023-02-03T11:24:05.862Z,6.70
2023-02-03T11:26:55.677Z,6.60
2023-02-03T11:29:34.607Z,6.60
2023-02-03T11:32:23.668Z,6.70
2023-02-03T11:35:24.473Z,6.80
2023-02-03T11:37:56.542Z,6.90
2023-02-03T11:40:27.259Z,6.90
2023-02-03T11:42:57.241Z,6.90
2023-02-03T11:45:27.277Z,6.90
2023-02-03T11:48:06.399Z,6.90
2023-02-03T11:50:59.377Z,6.90
2023-02-03T11:53:28.971Z,7.00
2023-02-03T11:55:58.794Z,7.00
2023-02-03T11:58:40.683Z,7.10
2023-02-03T12:01:22.889Z,7.10
2023-02-03T12:03:58.652Z,7.10
2023-02-03T12:06:49.684Z,7.20
2023-02-03T12:09:36.052Z,7.20
2023-02-03T12:15:51.272Z,7.10
2023-02-03T12:19:04.798Z,7.20
2023-02-03T12:21:38.762Z,7.30
2023-02-03T12:24:05.606Z,7.30
2023-02-03T12:27:05.079Z,7.30
2023-02-03T12:29:45.291Z,7.40
2023-02-03T12:32:33.778Z,7.40
2023-02-03T12:35:17.538Z,7.40
2023-02-03T12:38:03.765Z,7.50
2023-02-03T12:40:49.160Z,7.50
2023-02-03T12:43:16.113Z,7.60
2023-02-03T12:45:53.374Z,7.70
2023-02-03T12:48:29.265Z,7.70
2023-02-03T12:51:09.878Z,7.50
2023-02-03T12:53:41.261Z,7.40
2023-02-03T12:56:10.971Z,7.20
2023-02-03T12:58:57.653Z,7.10
2023-02-03T13:01:50.881Z,7.00
2023-02-03T13:04:57.031Z,7.00
2023-02-03T13:07:47.094Z,6.90
2023-02-03T13:10:29.248Z,6.90
2023-02-03T13:12:58.845Z,6.90
2023-02-03T13:15:30.875Z,6.90
2023-02-03T13:18:06.764Z,6.80
2023-02-03T13:20:36.058Z,6.80
2023-02-03T13:23:08.236Z,6.70
2023-02-03T13:26:05.964Z,6.70
2023-02-03T13:28:45.966Z,6.70
2023-02-03T13:31:22.024Z,6.70
2023-02-03T13:34:15.937Z,6.60
2023-02-03T13:37:16.782Z,6.50
2023-02-03T13:40:07.877Z,6.40
2023-02-03T13:43:02.688Z,6.40
2023-02-03T13:45:33.644Z,6.30
2023-02-03T13:48:30.875Z,6.30
2023-02-03T13:51:18.409Z,6.20
2023-02-03T13:53:47.331Z,6.20
2023-02-03T13:56:17.236Z,6.20
2023-02-03T13:59:04.361Z,6.10
2023-02-03T14:01:41.135Z,6.10
2023-02-03T14:04:29.275Z,6.10
2023-02-03T14:07:00.014Z,6.10
2023-02-03T14:09:35.780Z,6.10
2023-02-03T14:12:32.292Z,6.10
2023-02-03T14:15:04.805Z,6.10
2023-02-03T14:17:34.626Z,6.00
2023-02-03T14:20:03.855Z,6.00
2023-02-03T14:22:31.701Z,5.90
2023-02-03T14:25:05.980Z,5.90
2023-02-03T14:27:33.318Z,5.80
2023-02-03T14:30:07.164Z,5.80
2023-02-03T14:32:56.053Z,5.80
2023-02-03T14:35:35.104Z,5.70
2023-02-03T14:38:09.417Z,5.70
2023-02-03T14:40:53.756Z,5.60
2023-02-03T14:43:29.536Z,5.60
2023-02-03T14:46:18.296Z,5.60
2023-02-03T14:48:52.268Z,5.50
2023-02-03T14:51:31.695Z,5.50
2023-02-03T14:54:49.413Z,5.50
2023-02-03T14:57:31.290Z,5.40
2023-02-03T15:00:19.315Z,5.40
2023-02-03T15:03:11.396Z,5.40
2023-02-03T15:05:53.341Z,5.40
2023-02-03T15:08:36.907Z,5.30
2023-02-03T15:11:31.846Z,5.30
2023-02-03T15:14:25.840Z,5.30
2023-02-03T15:17:10.695Z,5.30
2023-02-03T15:19:42.001Z,5.20
2023-02-03T15:22:29.813Z,5.20
2023-02-03T15:25:05.613Z,5.20
2023-02-03T15:27:35.409Z,5.20
2023-02-03T15:30:23.839Z,5.10
2023-02-03T15:33:09.160Z,5.10
2023-02-03T15:35:38.677Z,5.10
2023-02-03T15:38:24.075Z,5.10
2023-02-03T15:40:57.981Z,5.10
2023-02-03T15:43:31.797Z,5.10
2023-02-03T15:46:30.752Z,5.10
2023-02-03T15:48:58.114Z,5.10
2023-02-03T15:51:30.832Z,5.10
2023-02-03T15:54:13.013Z,5.10
2023-02-03T15:56:48.772Z,5.10
2023-02-03T15:59:27.639Z,5.10
2023-02-03T16:01:54.728Z,5.10
2023-02-03T16:04:23.027Z,5.10
2023-02-03T16:06:52.487Z,5.10
2023-02-03T16:09:41.196Z,5.10
2023-02-03T16:12:23.063Z,5.20
2023-02-03T16:14:50.259Z,5.20
2023-02-03T16:17:33.880Z,5.20
2023-02-03T16:20:13.189Z,5.30
2023-02-03T16:23:17.309Z,5.30
2023-02-03T16:25:44.105Z,5.20
2023-02-03T16:28:32.291Z,5.30
2023-02-03T16:31:29.176Z,5.30
2023-02-03T16:34:14.646Z,5.30
2023-02-03T16:37:02.208Z,5.30
2023-02-03T16:39:48.021Z,5.30
2023-02-03T16:42:38.549Z,5.20
2023-02-03T16:45:35.301Z,5.20
2023-02-03T16:48:21.785Z,5.20
2023-02-03T16:50:58.191Z,5.20
2023-02-03T16:53:31.988Z,5.10
2023-02-03T16:56:04.507Z,5.10
2023-02-03T16:58:31.957Z,5.10
2023-02-03T17:01:01.196Z,5.10
2023-02-03T17:03:28.923Z,5.10
2023-02-03T17:05:57.350Z,5.10
2023-02-03T17:08:25.846Z,5.10
2023-02-03T17:10:52.712Z,5.20
2023-02-03T17:13:21.208Z,5.20
2023-02-03T17:15:52.511Z,5.10
2023-02-03T17:18:19.816Z,5.10
2023-02-03T17:20:47.106Z,5.10
2023-02-03T17:23:16.165Z,5.10
2023-02-03T17:28:26.396Z,5.10
2023-02-03T17:31:01.575Z,5.10
2023-02-03T17:33:28.586Z,5.10
2023-02-03T17:36:02.802Z,5.10
2023-02-03T17:38:30.438Z,5.10
2023-02-03T17:54:41.098Z,5.10
2023-02-03T17:57:07.942Z,5.10
2023-02-03T17:59:37.632Z,5.10
2023-02-03T18:02:04.587Z,5.10
2023-02-03T18:04:31.613Z,5.10
2023-02-03T18:06:58.365Z,5.10
2023-02-03T18:09:25.262Z,5.10
2023-02-03T18:11:52.091Z,5.10
2023-02-03T18:14:18.915Z,5.10
2023-02-03T18:16:45.765Z,5.10
2023-02-03T18:19:15.711Z,5.10
2023-02-03T18:21:43.446Z,5.10
2023-02-03T18:24:12.743Z,5.10
2023-02-03T18:26:50.210Z,5.10
2023-02-03T18:29:17.702Z,5.10
2023-02-03T18:31:44.653Z,5.00
2023-02-03T18:34:11.876Z,5.00
2023-02-03T18:39:06.349Z,4.90
2023-02-03T18:41:33.341Z,4.80
2023-02-03T18:44:00.224Z,4.70
2023-02-03T18:46:29.943Z,4.40
2023-02-03T18:48:57.183Z,4.30
2023-02-03T18:51:25.673Z,4.20
2023-02-03T18:53:56.086Z,4.10
2023-02-03T18:56:28.026Z,4.10
2023-02-03T18:58:55.096Z,3.90
2023-02-03T19:01:27.571Z,3.70
2023-02-03T19:03:55.879Z,3.60
2023-02-03T19:06:24.282Z,3.60
2023-02-03T19:08:52.224Z,3.50
2023-02-03T19:11:19.255Z,3.40
2023-02-03T19:13:46.077Z,3.30
2023-02-03T19:16:16.660Z,3.20
2023-02-03T19:18:44.541Z,3.20
2023-02-03T19:21:12.743Z,3.20
2023-02-03T19:23:42.932Z,3.10
2023-02-03T19:26:11.957Z,3.00
2023-02-03T19:28:40.378Z,3.00
2023-02-03T19:31:10.543Z,3.00
2023-02-03T19:33:37.767Z,3.00
2023-02-03T19:36:08.846Z,2.90
2023-02-03T19:38:36.322Z,2.90
2023-02-03T19:41:03.885Z,2.90
2023-02-03T19:43:31.361Z,2.90
2023-02-03T19:45:58.512Z,2.90
2023-02-03T19:48:25.343Z,2.80
2023-02-03T19:50:52.178Z,2.80
2023-02-03T19:53:19.464Z,2.80
2023-02-03T19:55:46.645Z,2.80
2023-02-03T19:58:14.085Z,2.80
2023-02-03T20:00:41.658Z,2.80
2023-02-03T20:03:09.076Z,2.80
2023-02-03T20:05:36.626Z,2.80
2023-02-03T20:08:04.198Z,2.90
2023-02-03T20:10:32.654Z,2.90
2023-02-03T20:12:59.977Z,2.90
2023-02-03T20:15:26.881Z,2.90
2023-02-03T20:17:53.825Z,2.90
2023-02-03T20:20:27.107Z,2.90
2023-02-03T20:22:53.958Z,2.90
2023-02-03T20:25:21.060Z,2.90
2023-02-03T20:27:48.011Z,2.90
2023-02-03T20:30:14.898Z,2.90
2023-02-03T20:32:41.707Z,3.00
2023-02-03T20:35:09.007Z,2.90
2023-02-03T20:37:36.387Z,2.90
2023-02-03T20:40:11.100Z,2.90
2023-02-03T20:42:37.928Z,2.90
2023-02-03T20:45:14.375Z,2.90
2023-02-03T20:47:41.699Z,2.90
2023-02-03T20:50:20.492Z,2.80
2023-02-03T20:52:48.840Z,2.80
2023-02-03T20:55:20.834Z,2.80
2023-02-03T20:57:50.728Z,2.80
2023-02-03T21:00:27.357Z,2.80
2023-02-03T21:03:13.499Z,2.80
2023-02-03T21:05:43.012Z,2.80
2023-02-03T21:08:16.489Z,2.80
2023-02-03T21:10:44.472Z,2.80
2023-02-03T21:13:24.652Z,2.80
2023-02-03T21:15:54.890Z,2.90
2023-02-03T21:18:43.005Z,2.80
2023-02-03T21:21:23.180Z,2.80
2023-02-03T21:23:50.698Z,2.80
2023-02-03T21:26:21.743Z,2.80
2023-02-03T21:29:00.268Z,2.80
2023-02-03T21:31:31.182Z,2.80
2023-02-03T21:34:03.099Z,2.80
2023-02-03T21:36:37.636Z,2.80
2023-02-03T21:39:24.126Z,2.70
2023-02-03T21:41:50.894Z,2.70
2023-02-03T21:44:30.196Z,2.70
2023-02-03T21:46:56.954Z,2.70
2023-02-03T21:49:23.676Z,2.70
2023-02-03T21:51:50.561Z,2.70
2023-02-03T21:54:31.475Z,2.70
2023-02-03T21:56:58.774Z,2.70
2023-02-03T21:59:31.385Z,2.80
2023-02-03T22:01:58.585Z,2.70
2023-02-03T22:04:29.336Z,2.70
2023-02-03T22:06:56.591Z,2.70
2023-02-03T22:09:26.013Z,2.70
2023-02-03T22:11:53.419Z,2.70
2023-02-03T22:14:21.006Z,2.70
2023-02-03T22:16:48.058Z,2.70
2023-02-03T22:19:17.407Z,2.70
2023-02-03T22:21:44.791Z,2.70
2023-02-03T22:24:11.842Z,2.70
2023-02-03T22:26:39.034Z,2.70
2023-02-03T22:29:05.917Z,2.70
2023-02-03T22:31:32.877Z,2.70
2023-02-03T22:33:59.824Z,2.70
2023-02-03T22:36:26.599Z,2.70
2023-02-03T22:38:53.468Z,2.70
2023-02-03T22:41:21.018Z,2.70
2023-02-03T22:43:48.285Z,2.70
2023-02-03T22:46:15.140Z,2.70
2023-02-03T22:48:42.047Z,2.70
2023-02-03T22:51:09.147Z,2.70
2023-02-03T22:53:36.099Z,2.70
2023-02-03T22:56:03.004Z,2.70
2023-02-03T22:58:29.846Z,2.70
2023-02-03T23:00:56.707Z,2.70
2023-02-03T23:03:23.583Z,2.70
2023-02-03T23:05:50.441Z,2.70
2023-02-03T23:08:17.391Z,2.70
2023-02-03T23:10:44.187Z,2.70
2023-02-03T23:13:11.070Z,2.60
2023-02-03T23:15:37.969Z,2.60
2023-02-03T23:18:04.878Z,2.60
2023-02-03T23:20:32.159Z,2.60
2023-02-03T23:22:59.128Z,2.60
2023-02-03T23:25:25.998Z,2.50
2023-02-03T23:27:52.879Z,2.50
2023-02-03T23:30:19.857Z,2.50
2023-02-03T23:32:46.707Z,2.50
2023-02-03T23:35:32.015Z,2.50
2023-02-03T23:37:58.798Z,2.50
2023-02-03T23:40:25.682Z,2.50
2023-02-03T23:42:52.641Z,2.50
2023-02-03T23:45:19.501Z,2.40
2023-02-03T23:47:47.022Z,2.40
2023-02-03T23:50:16.666Z,2.40
2023-02-03T23:52:43.496Z,2.40
2023-02-03T23:55:12.909Z,2.40
2023-02-03T23:57:42.512Z,2.40
